Silver Lake, WI (53170)

1:27 AM CDT on August 02, 2015 (GMT -0500)
KWITWINL2 | | Change Station
CLOSE
Current Station
Personal Weather Station
Location: Bassett, WI
Elevation: 849 ft
Nearby Weather Stations

Elev 849 ft 42.53 °N, 88.21 °W | Updated 30 seconds ago

Clear
Clear
69.9 °F
Feels Like 69.9 °F
N
4.0
Wind Variable Wind from WSW
Gusts 11.0 mph

Today
High -- | Low -- °F
--% Chance of Precip.
Yesterday
High -- | Low -- °F
Precip. -- in
5:45 AM 8:11 PM
Waning Gibbous, 95% visible
Pressure 29.87 in
Visibility 10.0 miles
Clouds Clear
Dew Point 66 °F
Humidity 87%
Rainfall 0.00 in
Snow Depth Not available.
UV 0 out of 12
Pollen 8.00 out of 12
Air Quality Not available.
Flu Activity Not available.
METAR KBUU 020615Z AUTO 23003KT 10SM CLR 19/18 A2987 RMK AO2 T01920183

More Conditions Fewer Conditions

Pressure 29.87 in
Visibility 10.0 miles
Clouds Clear
Dew Point 66 °F
Humidity 87%
Rainfall 0.00 in
Snow Depth Not available.
UV 0 out of 12
Pollen 8.00 out of 12
Air Quality Not available.
Flu Activity Not available.
METAR KBUU 020615Z AUTO 23003KT 10SM CLR 19/18 A2987 RMK AO2 T01920183

More Conditions Fewer Conditions

10-Day Weather Forecast

×

Almanac

Astronomy

Aug. 02, 2015 Rise Set
Actual Time
Civil Twilight
Nautical Twilight
Astronomical Twilight
Moon
Length of Visible Light
Length of Day
Tomorrow will be .
, % of the Moon is Illuminated

Today's Extremes

State Highs State Lows

Community

WunderPhotos

Upload Photos

1,843,197 photos uploaded!

WunderBlogs® & News

Nearby

Air Quality

  Air Quality AQ Index Pollutant
Not available.

Snow Depth

Station Depth Elevation

Earthquake Activity

City Distance Mag. Time & Date
Minimum magnitude displayed is 2.5.

Coastal Water Temperatures

Place Temperature

Stations

Nearby Weather Stations

Station Location Temp. Windchill Dew Point Humidity Wind Precip. Elev Updated Type